createdAt,value
2018-03-30T00:00:48.499Z,2.90
2018-03-30T00:03:16.027Z,2.80
2018-03-30T00:05:43.577Z,2.80
2018-03-30T00:08:11.092Z,2.80
2018-03-30T00:10:44.364Z,2.80
2018-03-30T00:13:11.863Z,2.80
2018-03-30T00:15:40.123Z,2.70
2018-03-30T00:18:07.622Z,2.70
2018-03-30T00:20:35.118Z,2.70
2018-03-30T00:23:02.608Z,2.70
2018-03-30T00:25:30.115Z,2.70
2018-03-30T00:27:57.657Z,2.70
2018-03-30T00:30:25.182Z,2.70
2018-03-30T00:32:53.610Z,2.70
2018-03-30T00:35:21.139Z,2.60
2018-03-30T00:37:49.417Z,2.70
2018-03-30T00:40:17.711Z,2.60
2018-03-30T00:42:45.261Z,2.60
2018-03-30T00:45:12.825Z,2.60
2018-03-30T00:47:40.310Z,2.60
2018-03-30T00:50:09.439Z,2.60
2018-03-30T00:52:36.938Z,2.60
2018-03-30T00:55:04.525Z,2.60
2018-03-30T00:57:32.043Z,2.50
2018-03-30T01:00:00.315Z,2.50
2018-03-30T01:02:28.610Z,2.50
2018-03-30T01:04:56.129Z,2.50
2018-03-30T01:07:23.634Z,2.50
2018-03-30T01:09:51.187Z,2.50
2018-03-30T01:12:18.678Z,2.50
2018-03-30T01:14:46.182Z,2.40
2018-03-30T01:17:14.426Z,2.40
2018-03-30T01:19:42.031Z,2.40
2018-03-30T01:22:10.338Z,2.30
2018-03-30T01:24:37.842Z,2.30
2018-03-30T01:27:05.351Z,2.30
2018-03-30T01:29:32.876Z,2.20
2018-03-30T01:32:01.144Z,2.10
2018-03-30T01:34:28.630Z,2.10
2018-03-30T01:36:56.196Z,2.10
2018-03-30T01:39:23.756Z,2.10
2018-03-30T01:41:51.294Z,2.10
2018-03-30T01:44:19.565Z,2.10
2018-03-30T01:46:47.836Z,2.10
2018-03-30T01:49:16.090Z,2.10
2018-03-30T01:51:43.698Z,2.00
2018-03-30T01:54:11.199Z,2.10
2018-03-30T01:56:38.696Z,2.00
2018-03-30T01:59:06.962Z,2.00
2018-03-30T02:01:34.551Z,2.00
2018-03-30T02:04:02.050Z,2.00
2018-03-30T02:06:29.560Z,2.00
2018-03-30T02:08:57.075Z,2.00
2018-03-30T02:11:24.652Z,1.90
2018-03-30T02:13:52.151Z,1.90
2018-03-30T02:16:19.637Z,1.90
2018-03-30T02:18:47.199Z,1.90
2018-03-30T02:21:14.709Z,1.90
2018-03-30T02:23:42.247Z,1.90
2018-03-30T02:26:09.843Z,1.90
2018-03-30T02:28:37.351Z,1.90
2018-03-30T02:31:04.852Z,1.90
2018-03-30T02:33:32.359Z,1.90
2018-03-30T02:35:59.866Z,1.80
2018-03-30T02:38:28.144Z,1.80
2018-03-30T02:40:55.661Z,1.80
2018-03-30T02:43:23.173Z,1.80
2018-03-30T02:45:50.655Z,1.80
2018-03-30T02:48:18.167Z,1.80
2018-03-30T02:50:46.444Z,1.70
2018-03-30T02:53:14.724Z,1.70
2018-03-30T02:55:42.993Z,1.70
2018-03-30T02:58:11.926Z,1.70
2018-03-30T03:00:39.461Z,1.70
2018-03-30T03:03:07.748Z,1.70
2018-03-30T03:05:35.300Z,1.70
2018-03-30T03:08:03.575Z,1.70
2018-03-30T03:10:31.851Z,1.70
2018-03-30T03:13:00.123Z,1.70
2018-03-30T03:15:28.386Z,1.60
2018-03-30T03:17:55.960Z,1.60
2018-03-30T03:20:24.235Z,1.50
2018-03-30T03:22:52.504Z,1.60
2018-03-30T03:25:20.766Z,1.60
2018-03-30T03:27:48.268Z,1.60
2018-03-30T03:30:15.834Z,1.60
2018-03-30T03:32:43.343Z,1.60
2018-03-30T03:35:10.826Z,1.60
2018-03-30T03:37:39.106Z,1.60
2018-03-30T03:40:07.362Z,1.50
2018-03-30T03:42:34.854Z,1.50
2018-03-30T03:45:02.376Z,1.50
2018-03-30T03:47:29.955Z,1.50
2018-03-30T03:49:58.227Z,1.40
2018-03-30T03:52:26.501Z,1.30
2018-03-30T03:54:54.780Z,1.30
2018-03-30T03:57:23.029Z,1.30
2018-03-30T03:59:50.619Z,1.30
2018-03-30T04:02:18.913Z,1.20
2018-03-30T04:04:46.479Z,1.20
2018-03-30T04:07:13.990Z,1.20
2018-03-30T04:09:41.486Z,1.20
2018-03-30T04:12:09.063Z,1.20
2018-03-30T04:14:36.572Z,1.10
2018-03-30T04:17:04.878Z,1.10
2018-03-30T04:19:32.438Z,1.10
2018-03-30T04:22:00.719Z,1.00
2018-03-30T04:24:28.213Z,1.00
2018-03-30T04:26:55.706Z,1.00
2018-03-30T04:29:23.225Z,0.90
2018-03-30T04:31:50.751Z,0.80
2018-03-30T04:34:19.019Z,0.80
2018-03-30T04:36:47.312Z,0.80
2018-03-30T04:39:14.812Z,0.70
2018-03-30T04:41:42.326Z,0.70
2018-03-30T04:44:09.853Z,0.70
2018-03-30T04:46:37.345Z,0.70
2018-03-30T04:49:04.844Z,0.70
2018-03-30T04:51:32.367Z,0.70
2018-03-30T04:53:59.851Z,0.70
2018-03-30T04:56:27.787Z,0.70
2018-03-30T04:58:55.373Z,0.70
2018-03-30T05:01:22.906Z,0.70
2018-03-30T05:03:51.147Z,0.80
2018-03-30T05:06:18.660Z,0.80
2018-03-30T05:08:46.164Z,0.80
2018-03-30T05:11:13.647Z,0.90
2018-03-30T05:13:41.952Z,0.90
2018-03-30T05:16:09.823Z,0.80
2018-03-30T05:18:37.319Z,0.90
2018-03-30T05:21:04.841Z,0.90
2018-03-30T05:23:32.325Z,0.90
2018-03-30T05:25:59.824Z,0.90
2018-03-30T05:28:28.116Z,1.00
2018-03-30T05:30:55.602Z,1.00
2018-03-30T05:33:23.115Z,1.00
2018-03-30T05:35:51.400Z,1.00
2018-03-30T05:38:19.674Z,1.10
2018-03-30T05:40:48.081Z,1.10
2018-03-30T05:43:15.595Z,1.10
2018-03-30T05:45:43.865Z,1.20
2018-03-30T05:48:11.353Z,1.20
2018-03-30T05:50:39.726Z,1.40
2018-03-30T05:53:07.996Z,1.40
2018-03-30T05:55:36.254Z,4.30
2018-03-30T05:58:03.766Z,4.30
2018-03-30T06:00:31.295Z,6.60
2018-03-30T06:02:59.580Z,4.50
2018-03-30T06:05:27.954Z,3.80
2018-03-30T06:07:56.320Z,3.40
2018-03-30T06:10:24.585Z,3.20
2018-03-30T06:12:52.091Z,3.20
2018-03-30T06:15:20.339Z,3.00
2018-03-30T06:17:48.595Z,2.90
2018-03-30T06:20:16.883Z,2.90
2018-03-30T06:22:44.385Z,2.90
2018-03-30T06:25:11.861Z,2.90
2018-03-30T06:27:39.399Z,2.90
2018-03-30T06:30:06.909Z,2.90
2018-03-30T06:32:34.489Z,3.00
2018-03-30T06:35:02.033Z,3.00
2018-03-30T06:37:29.516Z,3.00
2018-03-30T06:39:57.767Z,3.10
2018-03-30T06:42:25.287Z,3.10
2018-03-30T06:44:52.796Z,3.20
2018-03-30T06:47:21.067Z,3.40
2018-03-30T06:49:49.355Z,3.60
2018-03-30T06:52:17.607Z,3.70
2018-03-30T06:54:45.222Z,3.60
2018-03-30T06:57:12.743Z,3.70
2018-03-30T06:59:40.995Z,3.80
2018-03-30T07:02:08.498Z,3.80
2018-03-30T07:04:36.008Z,3.90
2018-03-30T07:07:03.516Z,4.00
2018-03-30T07:09:31.619Z,4.10
2018-03-30T07:11:59.118Z,4.20
2018-03-30T07:14:26.603Z,4.60
2018-03-30T07:16:54.134Z,5.00
2018-03-30T07:19:21.724Z,5.30
2018-03-30T07:21:49.208Z,5.50
2018-03-30T07:24:16.710Z,5.80
2018-03-30T07:26:44.970Z,5.80
2018-03-30T07:29:13.429Z,5.80
2018-03-30T07:31:40.909Z,5.60
2018-03-30T07:34:08.956Z,5.50
2018-03-30T07:36:36.441Z,5.60
2018-03-30T07:39:03.943Z,5.60
2018-03-30T07:41:31.496Z,5.60
2018-03-30T07:43:59.747Z,5.80
2018-03-30T07:46:27.329Z,5.80
2018-03-30T07:48:55.594Z,5.90
2018-03-30T07:51:23.085Z,5.90
2018-03-30T07:53:50.585Z,6.10
2018-03-30T07:56:18.095Z,6.20
2018-03-30T07:58:45.565Z,6.30
2018-03-30T08:01:13.059Z,6.50
2018-03-30T08:03:40.654Z,6.40
2018-03-30T08:06:08.939Z,6.60
2018-03-30T08:08:37.206Z,6.80
2018-03-30T08:11:05.498Z,7.00
2018-03-30T08:13:32.989Z,7.00
2018-03-30T08:16:00.553Z,7.10
2018-03-30T08:18:28.062Z,7.10
2018-03-30T08:20:56.318Z,7.50
2018-03-30T08:23:23.913Z,7.50
2018-03-30T08:25:51.463Z,7.90
2018-03-30T08:28:19.888Z,8.00
2018-03-30T08:30:47.446Z,8.10
2018-03-30T08:33:15.035Z,8.10
2018-03-30T08:35:42.603Z,8.30
2018-03-30T08:38:10.192Z,8.30
2018-03-30T08:40:38.462Z,8.50
2018-03-30T08:43:06.751Z,8.60
2018-03-30T08:45:34.368Z,8.60
2018-03-30T08:48:01.895Z,8.70
2018-03-30T08:50:29.398Z,9.10
2018-03-30T08:52:56.878Z,9.40
2018-03-30T08:55:25.205Z,9.80
2018-03-30T08:57:52.687Z,9.80
2018-03-30T09:00:20.183Z,10.00
2018-03-30T09:02:47.693Z,10.10
2018-03-30T09:05:15.183Z,10.50
2018-03-30T09:07:43.435Z,11.10
2018-03-30T09:10:10.954Z,11.10
2018-03-30T09:12:38.471Z,11.50
2018-03-30T09:15:06.809Z,11.80
2018-03-30T09:17:34.310Z,11.80
2018-03-30T09:20:02.603Z,12.80
2018-03-30T09:22:30.093Z,12.80
2018-03-30T09:24:57.624Z,13.20
2018-03-30T09:27:25.114Z,13.50
2018-03-30T09:29:53.495Z,13.80
2018-03-30T09:32:21.022Z,14.30
2018-03-30T09:34:48.573Z,14.70
2018-03-30T09:37:17.685Z,14.60
2018-03-30T09:39:45.310Z,14.50
2018-03-30T09:42:13.593Z,14.10
2018-03-30T09:44:41.869Z,14.40
2018-03-30T09:47:10.147Z,14.60
2018-03-30T09:49:38.447Z,14.80
2018-03-30T09:52:05.962Z,14.80
2018-03-30T09:54:33.481Z,15.20
2018-03-30T09:57:00.965Z,15.10
2018-03-30T09:59:28.875Z,15.60
2018-03-30T10:01:57.193Z,16.20
2018-03-30T10:04:28.718Z,16.20
2018-03-30T10:06:56.330Z,16.50
2018-03-30T10:09:23.852Z,16.80
2018-03-30T10:11:51.331Z,17.50
2018-03-30T10:14:18.839Z,18.00
2018-03-30T10:16:47.086Z,18.30
2018-03-30T10:19:14.590Z,18.30
2018-03-30T10:21:42.131Z,18.90
2018-03-30T10:24:10.393Z,19.70
2018-03-30T10:26:37.898Z,19.60
2018-03-30T10:29:05.401Z,19.30
2018-03-30T10:31:32.904Z,19.50
2018-03-30T10:34:00.455Z,20.30
2018-03-30T10:36:27.979Z,20.40
2018-03-30T10:38:55.477Z,20.50
2018-03-30T10:41:22.974Z,20.60
2018-03-30T10:43:50.487Z,20.50
2018-03-30T10:46:17.971Z,20.90
2018-03-30T10:48:45.484Z,21.00
2018-03-30T10:51:12.961Z,21.60
2018-03-30T10:53:40.456Z,23.00
2018-03-30T10:56:07.971Z,23.10
2018-03-30T10:58:35.497Z,23.10
2018-03-30T11:01:02.987Z,23.10
2018-03-30T11:03:30.494Z,23.00
2018-03-30T11:05:58.001Z,23.20
2018-03-30T11:08:26.246Z,23.80
2018-03-30T11:10:53.742Z,23.80
2018-03-30T11:13:21.523Z,23.70
2018-03-30T11:15:49.066Z,23.60
2018-03-30T11:18:17.339Z,23.90
2018-03-30T11:20:45.758Z,24.00
2018-03-30T11:23:13.242Z,24.00
2018-03-30T11:25:40.736Z,23.70
2018-03-30T11:28:09.010Z,23.70
2018-03-30T11:30:36.614Z,23.70
2018-03-30T11:33:04.141Z,24.10
2018-03-30T11:35:31.646Z,23.90
2018-03-30T11:37:59.228Z,24.50
2018-03-30T11:40:26.716Z,24.90
2018-03-30T11:42:55.021Z,25.20
2018-03-30T11:45:22.502Z,25.20
2018-03-30T11:47:49.994Z,24.90
2018-03-30T11:50:17.505Z,25.40
2018-03-30T11:52:44.986Z,25.50
2018-03-30T11:55:12.509Z,25.10
2018-03-30T11:57:40.007Z,24.50
2018-03-30T12:00:07.504Z,24.50
2018-03-30T12:02:35.002Z,24.80
2018-03-30T12:05:02.551Z,24.70
2018-03-30T12:07:30.039Z,24.90
2018-03-30T12:09:57.527Z,24.80
2018-03-30T12:12:25.876Z,25.50
2018-03-30T12:14:53.350Z,25.50
2018-03-30T12:17:20.848Z,25.50
2018-03-30T12:19:48.351Z,25.00
2018-03-30T12:22:15.847Z,24.90
2018-03-30T12:24:44.096Z,25.90
2018-03-30T12:27:11.615Z,25.90
2018-03-30T12:29:39.111Z,25.40
2018-03-30T12:32:06.614Z,26.20
2018-03-30T12:34:34.116Z,26.50
2018-03-30T12:37:01.607Z,26.20
2018-03-30T12:39:29.857Z,25.70
2018-03-30T12:41:57.358Z,25.70
2018-03-30T12:44:24.906Z,25.90
2018-03-30T12:46:53.179Z,26.10
2018-03-30T12:49:21.499Z,25.80
2018-03-30T12:51:49.046Z,25.80
2018-03-30T12:54:16.526Z,26.20
2018-03-30T12:56:44.172Z,26.40
2018-03-30T12:59:11.714Z,26.70
2018-03-30T13:01:39.143Z,27.30
2018-03-30T13:04:06.773Z,27.10
2018-03-30T13:06:34.254Z,26.10
2018-03-30T13:09:01.835Z,25.50
2018-03-30T13:11:30.108Z,24.60
2018-03-30T13:13:58.502Z,23.60
2018-03-30T13:16:25.985Z,23.50
2018-03-30T13:18:53.527Z,24.00
2018-03-30T13:21:21.136Z,24.00
2018-03-30T13:23:48.650Z,24.10
2018-03-30T13:26:16.165Z,24.10
2018-03-30T13:28:43.706Z,24.40
2018-03-30T13:31:11.187Z,24.90
2018-03-30T13:33:38.694Z,25.00
2018-03-30T13:36:06.243Z,25.70
2018-03-30T13:38:33.741Z,25.80
2018-03-30T13:41:01.264Z,25.90
2018-03-30T13:43:28.763Z,25.90
2018-03-30T13:45:57.930Z,24.20
2018-03-30T13:48:25.430Z,24.20
2018-03-30T13:54:17.052Z,22.90
2018-03-30T13:56:46.414Z,22.50
2018-03-30T13:59:14.002Z,22.40
2018-03-30T14:01:53.296Z,22.90
2018-03-30T14:04:33.975Z,23.40
2018-03-30T14:07:09.816Z,22.70
2018-03-30T14:09:38.076Z,22.70
2018-03-30T14:12:10.331Z,22.70
2018-03-30T14:14:37.868Z,22.40
2018-03-30T14:20:24.994Z,20.80
2018-03-30T14:22:55.918Z,20.70
2018-03-30T14:25:23.417Z,19.70
2018-03-30T14:27:57.355Z,19.40
2018-03-30T14:30:25.471Z,19.60
2018-03-30T14:32:59.627Z,20.00
2018-03-30T14:35:34.944Z,20.20
2018-03-30T14:38:06.816Z,20.70
2018-03-30T14:40:45.103Z,21.30
2018-03-30T14:43:15.182Z,20.80
2018-03-30T14:45:53.323Z,21.10
2018-03-30T14:48:20.818Z,21.10
2018-03-30T14:50:53.042Z,21.70
2018-03-30T14:53:23.329Z,21.80
2018-03-30T14:55:58.540Z,22.10
2018-03-30T14:58:27.677Z,21.90
2018-03-30T15:01:01.633Z,21.30
2018-03-30T15:03:37.552Z,21.30
2018-03-30T15:06:13.249Z,19.60
2018-03-30T15:08:41.526Z,19.60
2018-03-30T15:11:12.463Z,18.90
2018-03-30T15:13:41.765Z,18.40
2018-03-30T15:16:16.052Z,18.00
2018-03-30T15:18:43.561Z,17.90
2018-03-30T15:21:15.560Z,18.10
2018-03-30T15:23:44.599Z,17.80
2018-03-30T15:26:19.693Z,17.80
2018-03-30T15:28:49.771Z,17.40
2018-03-30T15:31:25.989Z,17.40
2018-03-30T15:33:54.290Z,17.10
2018-03-30T15:36:27.458Z,16.90
2018-03-30T15:38:54.953Z,16.50
2018-03-30T15:41:22.426Z,16.50
2018-03-30T15:43:50.759Z,16.00
2018-03-30T15:46:24.657Z,15.80
2018-03-30T15:48:52.147Z,15.70
2018-03-30T15:51:21.210Z,15.40
2018-03-30T15:53:48.224Z,15.30
2018-03-30T15:56:16.273Z,15.30
2018-03-30T15:58:43.738Z,15.30
2018-03-30T16:01:11.240Z,15.30
2018-03-30T16:03:39.484Z,15.20
2018-03-30T16:06:06.989Z,15.20
2018-03-30T16:08:34.499Z,15.00
2018-03-30T16:11:13.532Z,14.90
2018-03-30T16:13:41.030Z,14.80
2018-03-30T16:16:08.508Z,14.80
2018-03-30T16:18:47.949Z,14.70
2018-03-30T16:21:14.941Z,14.60
2018-03-30T16:23:42.699Z,14.30
2018-03-30T16:26:09.698Z,14.30
2018-03-30T16:28:36.727Z,14.20
2018-03-30T16:31:03.775Z,14.20
2018-03-30T16:33:30.777Z,14.10
2018-03-30T16:35:57.773Z,14.10
2018-03-30T16:38:24.770Z,14.00
2018-03-30T16:40:51.772Z,14.00
2018-03-30T16:43:18.824Z,13.90
2018-03-30T16:45:46.555Z,13.80
2018-03-30T16:48:14.323Z,13.60
2018-03-30T16:50:42.130Z,13.50
2018-03-30T16:53:09.142Z,13.50
2018-03-30T16:55:37.056Z,13.20
2018-03-30T16:58:04.146Z,13.20
2018-03-30T17:00:31.931Z,13.10
2018-03-30T17:02:58.955Z,13.10
2018-03-30T17:05:26.710Z,13.00
2018-03-30T17:07:53.694Z,13.00
2018-03-30T17:10:20.710Z,13.00
2018-03-30T17:12:47.766Z,12.80
2018-03-30T17:15:15.550Z,12.70
2018-03-30T17:17:42.570Z,12.60
2018-03-30T17:20:09.555Z,12.60
2018-03-30T17:22:36.558Z,12.50
2018-03-30T17:25:03.590Z,12.30
2018-03-30T17:27:30.591Z,12.20
2018-03-30T17:29:57.601Z,12.10
2018-03-30T17:32:24.622Z,12.10
2018-03-30T17:34:51.615Z,11.90
2018-03-30T17:37:18.645Z,11.90
2018-03-30T17:39:45.654Z,11.70
2018-03-30T17:42:12.657Z,11.70
2018-03-30T17:44:40.421Z,11.60
2018-03-30T17:47:08.203Z,11.50
2018-03-30T17:49:35.951Z,11.40
2018-03-30T17:52:03.721Z,11.30
2018-03-30T17:54:31.706Z,11.20
2018-03-30T17:56:58.822Z,11.20
2018-03-30T17:59:26.634Z,11.00
2018-03-30T18:01:53.650Z,11.00
2018-03-30T18:04:21.413Z,10.80
2018-03-30T18:06:48.435Z,10.80
2018-03-30T18:09:15.457Z,10.70
2018-03-30T18:11:42.454Z,10.70
2018-03-30T18:14:10.218Z,10.50
2018-03-30T18:16:37.984Z,10.60
2018-03-30T18:19:05.750Z,10.50
2018-03-30T18:21:32.751Z,10.50
2018-03-30T18:23:59.769Z,10.50
2018-03-30T18:26:26.780Z,10.40
2018-03-30T18:28:54.533Z,10.20
2018-03-30T18:31:21.584Z,10.20
2018-03-30T18:33:49.370Z,10.00
2018-03-30T18:36:16.399Z,10.00
2018-03-30T18:38:43.423Z,9.90
2018-03-30T18:41:10.433Z,10.00
2018-03-30T18:43:37.438Z,9.90
2018-03-30T18:46:05.255Z,9.80
2018-03-30T18:48:32.431Z,9.80
2018-03-30T18:50:59.565Z,9.70
2018-03-30T18:53:26.565Z,9.60
2018-03-30T18:55:54.318Z,9.40
2018-03-30T18:58:22.082Z,9.40
2018-03-30T19:00:49.098Z,9.40
2018-03-30T19:03:16.116Z,9.40
2018-03-30T19:05:43.111Z,9.30
2018-03-30T19:08:10.208Z,9.20
2018-03-30T19:10:37.221Z,9.10
2018-03-30T19:13:04.998Z,9.00
2018-03-30T19:15:32.763Z,8.90
2018-03-30T19:18:00.568Z,8.80
2018-03-30T19:20:27.558Z,8.80
2018-03-30T19:22:55.351Z,8.60
2018-03-30T19:25:22.354Z,8.60
2018-03-30T19:27:49.357Z,8.60
2018-03-30T19:30:16.363Z,8.60
2018-03-30T19:32:44.127Z,8.50
2018-03-30T19:35:11.115Z,8.40
2018-03-30T19:37:38.143Z,8.40
2018-03-30T19:40:05.886Z,8.30
2018-03-30T19:42:32.888Z,8.30
2018-03-30T19:44:59.907Z,8.30
2018-03-30T19:47:26.912Z,8.30
2018-03-30T19:49:53.911Z,8.20
2018-03-30T19:52:20.925Z,8.10
2018-03-30T19:54:48.729Z,8.00
2018-03-30T19:57:15.730Z,8.00
2018-03-30T19:59:42.758Z,7.90
2018-03-30T20:02:09.832Z,7.90
2018-03-30T20:04:37.595Z,7.80
2018-03-30T20:07:05.382Z,7.70
2018-03-30T20:09:32.382Z,7.70
2018-03-30T20:11:59.583Z,7.70
2018-03-30T20:14:26.630Z,7.60
2018-03-30T20:16:53.637Z,7.60
2018-03-30T20:19:20.785Z,7.60
2018-03-30T20:21:47.824Z,7.60
2018-03-30T20:24:14.848Z,7.40
2018-03-30T20:26:41.851Z,7.40
2018-03-30T20:29:09.669Z,7.30
2018-03-30T20:31:36.867Z,7.30
2018-03-30T20:34:04.662Z,7.30
2018-03-30T20:36:31.696Z,7.30
2018-03-30T20:38:58.749Z,7.20
2018-03-30T20:41:25.803Z,7.20
2018-03-30T20:43:52.831Z,7.10
2018-03-30T20:46:20.591Z,7.00
2018-03-30T20:48:48.356Z,6.90
2018-03-30T20:51:16.165Z,6.90
2018-03-30T20:53:43.223Z,6.90
2018-03-30T20:56:10.282Z,6.90
2018-03-30T20:58:37.332Z,6.80
2018-03-30T21:01:04.367Z,6.80
2018-03-30T21:03:31.430Z,6.70
2018-03-30T21:05:58.505Z,6.70
2018-03-30T21:08:25.627Z,6.70
2018-03-30T21:10:52.620Z,6.70
2018-03-30T21:13:19.666Z,6.60
2018-03-30T21:15:46.869Z,6.60
2018-03-30T21:18:13.914Z,6.50
2018-03-30T21:20:40.975Z,6.50
2018-03-30T21:23:08.035Z,6.50
2018-03-30T21:25:35.096Z,6.50
2018-03-30T21:28:02.913Z,6.40
2018-03-30T21:30:29.951Z,6.40
2018-03-30T21:32:57.001Z,6.30
2018-03-30T21:35:24.069Z,6.30
2018-03-30T21:37:51.098Z,6.30
2018-03-30T21:40:18.136Z,6.30
2018-03-30T21:42:45.169Z,6.30
2018-03-30T21:45:12.198Z,6.30
2018-03-30T21:47:39.987Z,6.20
2018-03-30T21:50:07.047Z,6.20
2018-03-30T21:52:34.102Z,6.10
2018-03-30T21:55:01.132Z,6.10
2018-03-30T21:57:28.178Z,6.10
2018-03-30T21:59:55.290Z,6.00
2018-03-30T22:02:23.226Z,6.00
2018-03-30T22:04:50.278Z,6.00
2018-03-30T22:07:17.282Z,6.00
2018-03-30T22:09:44.269Z,5.90
2018-03-30T22:12:11.278Z,5.90
2018-03-30T22:14:38.415Z,5.90
2018-03-30T22:17:06.257Z,5.80
2018-03-30T22:19:34.082Z,5.80
2018-03-30T22:22:01.236Z,5.80
2018-03-30T22:24:28.240Z,5.80
2018-03-30T22:26:56.032Z,5.70
2018-03-30T22:29:23.083Z,5.60
2018-03-30T22:31:50.116Z,5.60
2018-03-30T22:34:17.163Z,5.60
2018-03-30T22:36:44.146Z,5.60
2018-03-30T22:39:11.192Z,5.60
2018-03-30T22:41:38.266Z,5.60
2018-03-30T22:44:05.268Z,5.60
2018-03-30T22:46:32.277Z,5.50
2018-03-30T22:49:00.063Z,5.40
2018-03-30T22:51:27.045Z,5.40
2018-03-30T22:53:54.033Z,5.30
2018-03-30T22:56:21.054Z,5.40
2018-03-30T22:58:48.075Z,5.30
2018-03-30T23:01:15.130Z,5.30
2018-03-30T23:03:42.575Z,5.30
2018-03-30T23:06:09.666Z,5.30
2018-03-30T23:08:36.676Z,5.30
2018-03-30T23:11:03.730Z,5.20
2018-03-30T23:13:30.727Z,5.10
2018-03-30T23:15:58.582Z,5.10
2018-03-30T23:18:26.404Z,5.10
2018-03-30T23:20:53.396Z,5.00
2018-03-30T23:23:20.399Z,5.10
2018-03-30T23:25:47.430Z,5.00
2018-03-30T23:28:14.461Z,5.00
2018-03-30T23:30:42.236Z,5.00
2018-03-30T23:33:09.282Z,5.00
2018-03-30T23:35:36.292Z,5.00
2018-03-30T23:38:03.300Z,5.00
2018-03-30T23:40:30.313Z,4.90
2018-03-30T23:42:57.342Z,5.00
2018-03-30T23:45:24.348Z,5.00
2018-03-30T23:47:51.414Z,4.90
2018-03-30T23:50:18.426Z,4.90
2018-03-30T23:52:45.419Z,4.90
2018-03-30T23:55:12.426Z,4.80
2018-03-30T23:57:39.455Z,4.80
